VABV

Details ICAO VABV (BHU)
Name BHAVNAGAR
Region India
Timezone Asia/Kolkata (UTC+5.5)
Plans Departing 4
Arriving 2
Stats Elevation 44 ft / 13 m (AMSL)
Location 21.752206° 72.185738°
Runways 1
Magnetic Variation 0.306° E
Sunrise 2018-05-23 00:31:10 UTC / 2018-05-23 06:01:10 Local
Sunset 2018-05-23 13:47:40 UTC / 2018-05-23 19:17:40 Local
Advertisement - Login to hide

Runways

ID Width Length Bearing (true) Bearing (mag) Surface Threshold Offset Overrun Length
07 150 ft / 46 m 6,281 ft / 1,914 m 67.81° 67.50° Asphalt 855 ft / 261 m 310 ft / 94 m
25 150 ft / 46 m 6,281 ft / 1,914 m 247.82° 247.51° Asphalt 0 ft / 0 m 295 ft / 90 m

Map

Weather


0- 5 10 15 20 25 30 35+ Temperature / ° C

Clouds and Precipitation
Forecast for 2018-05-23 12:00 UTC. Updated 29 minutes ago

Ground ~20,000 ft ~40,000 ft Winds

METAR

Not found

TAF

TAF VABV 222300Z 2300/2309 25008KT 4000 FU NSC BECMG 2301/2303 25005KT 3000 HZ BECMG 2304/2306 27006KT 5000 FU NSC

Frequencies

Tower 120.80 MHz TWR
Warning: Do not use this data for real-world aviation or navigation. No guarantee of current accuracy is given.